createdAt,value
2018-11-14T00:00:18.212Z,6.60
2018-11-14T00:02:47.050Z,6.60
2018-11-14T00:05:16.076Z,6.60
2018-11-14T00:07:44.589Z,6.60
2018-11-14T00:10:13.378Z,6.60
2018-11-14T00:12:42.249Z,6.60
2018-11-14T00:15:13.344Z,6.60
2018-11-14T00:17:43.020Z,6.60
2018-11-14T00:20:12.026Z,6.60
2018-11-14T00:22:41.957Z,6.70
2018-11-14T00:25:10.995Z,6.70
2018-11-14T00:27:39.923Z,6.70
2018-11-14T00:30:10.464Z,6.60
2018-11-14T00:32:39.140Z,6.70
2018-11-14T00:35:08.464Z,6.70
2018-11-14T00:37:37.216Z,6.70
2018-11-14T00:40:06.816Z,6.70
2018-11-14T00:42:35.721Z,6.70
2018-11-14T00:45:05.204Z,6.70
2018-11-14T00:47:33.996Z,6.70
2018-11-14T00:50:02.716Z,6.60
2018-11-14T00:52:31.400Z,6.60
2018-11-14T00:55:00.080Z,6.50
2018-11-14T00:57:29.048Z,6.50
2018-11-14T00:59:57.870Z,6.40
2018-11-14T01:02:26.429Z,6.40
2018-11-14T01:04:55.237Z,6.40
2018-11-14T01:07:23.797Z,6.30
2018-11-14T01:09:52.485Z,6.30
2018-11-14T01:12:21.264Z,6.30
2018-11-14T01:14:50.181Z,6.20
2018-11-14T01:17:19.005Z,6.20
2018-11-14T01:19:47.709Z,6.20
2018-11-14T01:22:16.248Z,6.20
2018-11-14T01:24:44.920Z,6.10
2018-11-14T01:27:13.904Z,6.10
2018-11-14T01:29:42.838Z,6.10
2018-11-14T01:32:11.442Z,6.10
2018-11-14T01:34:40.273Z,6.00
2018-11-14T01:37:08.980Z,6.00
2018-11-14T01:39:38.130Z,5.90
2018-11-14T01:42:06.668Z,5.90
2018-11-14T01:44:35.436Z,5.90
2018-11-14T01:47:04.233Z,5.80
2018-11-14T01:49:33.101Z,5.80
2018-11-14T01:52:01.795Z,5.80
2018-11-14T01:54:30.468Z,5.80
2018-11-14T01:56:59.079Z,5.80
2018-11-14T01:59:27.869Z,5.80
2018-11-14T02:01:56.581Z,5.80
2018-11-14T02:04:25.432Z,5.80
2018-11-14T02:06:54.242Z,5.70
2018-11-14T02:09:23.029Z,5.70
2018-11-14T02:11:51.668Z,5.70
2018-11-14T02:14:20.341Z,5.70
2018-11-14T02:16:48.949Z,5.80
2018-11-14T02:19:17.737Z,5.70
2018-11-14T02:21:46.373Z,5.80
2018-11-14T02:24:15.169Z,5.80
2018-11-14T02:26:44.217Z,5.60
2018-11-14T02:29:12.988Z,5.60
2018-11-14T02:31:42.992Z,5.60
2018-11-14T02:34:11.613Z,5.60
2018-11-14T02:36:40.214Z,5.50
2018-11-14T02:39:09.061Z,5.50
2018-11-14T02:41:37.677Z,5.50
2018-11-14T02:44:06.353Z,5.50
2018-11-14T02:46:35.273Z,5.50
2018-11-14T02:49:04.072Z,5.50
2018-11-14T02:51:32.721Z,5.50
2018-11-14T02:54:01.620Z,5.50
2018-11-14T02:56:30.632Z,5.50
2018-11-14T02:58:59.425Z,5.40
2018-11-14T03:01:27.993Z,5.50
2018-11-14T03:03:56.692Z,5.40
2018-11-14T03:06:25.661Z,5.40
2018-11-14T03:08:54.586Z,5.40
2018-11-14T03:11:23.654Z,5.40
2018-11-14T03:13:52.368Z,5.40
2018-11-14T03:16:21.148Z,5.50
2018-11-14T03:18:49.808Z,5.50
2018-11-14T03:21:18.520Z,5.50
2018-11-14T03:23:47.092Z,5.50
2018-11-14T03:26:16.077Z,5.50
2018-11-14T03:28:44.784Z,5.50
2018-11-14T03:31:13.555Z,5.50
2018-11-14T03:33:42.321Z,5.50
2018-11-14T03:36:16.226Z,5.50
2018-11-14T03:38:45.153Z,5.50
2018-11-14T03:41:13.797Z,5.50
2018-11-14T03:43:43.197Z,5.60
2018-11-14T03:46:11.892Z,5.60
2018-11-14T03:48:40.628Z,5.60
2018-11-14T03:51:09.724Z,5.60
2018-11-14T03:53:38.423Z,5.60
2018-11-14T03:56:07.465Z,5.70
2018-11-14T03:58:36.259Z,5.70
2018-11-14T04:01:05.541Z,5.70
2018-11-14T04:03:34.176Z,5.70
2018-11-14T04:06:02.976Z,5.70
2018-11-14T04:08:31.521Z,5.80
2018-11-14T04:11:00.232Z,5.80
2018-11-14T04:13:29.109Z,5.70
2018-11-14T04:15:57.825Z,5.80
2018-11-14T04:18:26.484Z,5.80
2018-11-14T04:20:55.204Z,5.80
2018-11-14T04:23:23.972Z,5.80
2018-11-14T04:25:52.852Z,5.90
2018-11-14T04:28:21.769Z,5.90
2018-11-14T04:30:50.763Z,5.90
2018-11-14T04:33:19.333Z,6.00
2018-11-14T04:35:47.921Z,5.90
2018-11-14T04:38:16.589Z,5.90
2018-11-14T04:40:45.398Z,6.00
2018-11-14T04:43:14.292Z,6.00
2018-11-14T04:45:43.054Z,6.00
2018-11-14T04:48:12.397Z,6.10
2018-11-14T04:50:41.256Z,6.20
2018-11-14T04:53:10.056Z,6.30
2018-11-14T04:55:38.633Z,6.30
2018-11-14T04:58:07.337Z,6.30
2018-11-14T05:00:36.252Z,6.30
2018-11-14T05:03:05.483Z,6.30
2018-11-14T05:05:34.084Z,6.30
2018-11-14T05:08:02.793Z,6.30
2018-11-14T05:10:31.364Z,6.30
2018-11-14T05:13:00.290Z,6.20
2018-11-14T05:15:29.445Z,6.20
2018-11-14T05:17:58.129Z,6.20
2018-11-14T05:20:26.768Z,6.20
2018-11-14T05:22:55.660Z,6.20
2018-11-14T05:25:24.533Z,6.20
2018-11-14T05:27:53.395Z,6.20
2018-11-14T05:30:23.165Z,6.20
2018-11-14T05:32:52.189Z,6.20
2018-11-14T05:35:21.069Z,6.20
2018-11-14T05:37:50.180Z,6.20
2018-11-14T05:40:19.885Z,6.30
2018-11-14T05:42:49.236Z,6.30
2018-11-14T05:45:20.182Z,6.30
2018-11-14T05:47:48.824Z,6.40
2018-11-14T05:50:18.468Z,6.40
2018-11-14T05:52:47.112Z,6.50
2018-11-14T05:55:16.325Z,6.50
2018-11-14T05:57:45.061Z,6.60
2018-11-14T06:00:34.443Z,6.60
2018-11-14T06:03:03.776Z,6.60
2018-11-14T06:05:32.333Z,6.70
2018-11-14T06:08:01.267Z,6.70
2018-11-14T06:10:29.954Z,6.70
2018-11-14T06:12:58.936Z,6.70
2018-11-14T06:15:27.772Z,6.70
2018-11-14T06:17:57.489Z,6.70
2018-11-14T06:20:26.528Z,6.70
2018-11-14T06:22:55.300Z,6.70
2018-11-14T06:25:28.681Z,6.70
2018-11-14T06:27:57.857Z,6.60
2018-11-14T06:30:27.020Z,6.50
2018-11-14T06:32:55.985Z,6.50
2018-11-14T06:35:24.884Z,6.50
2018-11-14T06:37:54.096Z,6.50
2018-11-14T06:40:22.864Z,6.50
2018-11-14T06:42:51.509Z,6.50
2018-11-14T06:45:22.161Z,6.50
2018-11-14T06:47:51.925Z,6.50
2018-11-14T06:50:20.608Z,6.50
2018-11-14T06:52:50.280Z,6.50
2018-11-14T06:55:19.433Z,6.50
2018-11-14T06:57:48.061Z,6.50
2018-11-14T07:00:23.749Z,6.60
2018-11-14T07:02:52.848Z,6.60
2018-11-14T07:05:21.468Z,6.60
2018-11-14T07:07:50.052Z,6.60
2018-11-14T07:10:20.274Z,6.60
2018-11-14T07:12:49.222Z,6.60
2018-11-14T07:15:20.373Z,6.60
2018-11-14T07:17:50.029Z,6.60
2018-11-14T07:20:24.870Z,6.70
2018-11-14T07:22:53.511Z,6.70
2018-11-14T07:25:22.721Z,6.70
2018-11-14T07:27:51.488Z,6.80
2018-11-14T07:30:21.745Z,6.80
2018-11-14T07:32:51.941Z,6.80
2018-11-14T07:35:20.749Z,6.80
2018-11-14T07:38:57.377Z,6.90
2018-11-14T07:41:28.428Z,6.90
2018-11-14T07:43:57.149Z,6.90
2018-11-14T07:46:27.251Z,7.00
2018-11-14T07:48:56.431Z,7.00
2018-11-14T07:51:25.272Z,7.00
2018-11-14T07:53:53.660Z,7.00
2018-11-14T07:56:22.041Z,7.00
2018-11-14T07:58:50.476Z,7.10
2018-11-14T08:01:18.880Z,7.10
2018-11-14T08:03:47.951Z,7.10
2018-11-14T08:06:18.074Z,7.00
2018-11-14T08:08:48.019Z,6.90
2018-11-14T08:11:16.661Z,6.90
2018-11-14T08:13:46.971Z,7.00
2018-11-14T08:16:15.835Z,7.00
2018-11-14T08:18:44.764Z,7.10
2018-11-14T08:21:13.636Z,7.10
2018-11-14T08:23:42.384Z,7.20
2018-11-14T08:26:11.269Z,7.20
2018-11-14T08:28:40.069Z,7.30
2018-11-14T08:31:08.995Z,7.30
2018-11-14T08:33:37.683Z,7.30
2018-11-14T08:36:06.716Z,7.30
2018-11-14T08:38:35.097Z,7.40
2018-11-14T08:41:03.681Z,7.40
2018-11-14T08:43:32.284Z,7.40
2018-11-14T08:46:01.097Z,7.50
2018-11-14T08:48:29.740Z,7.40
2018-11-14T08:50:58.369Z,7.40
2018-11-14T08:53:27.320Z,7.40
2018-11-14T08:55:56.229Z,7.40
2018-11-14T08:58:25.156Z,7.30
2018-11-14T09:00:53.814Z,7.50
2018-11-14T09:03:22.425Z,7.50
2018-11-14T09:05:51.289Z,7.30
2018-11-14T09:08:20.060Z,7.40
2018-11-14T09:10:48.872Z,7.40
2018-11-14T09:13:17.716Z,7.40
2018-11-14T09:15:46.516Z,7.50
2018-11-14T09:18:15.482Z,7.60
2018-11-14T09:20:44.484Z,7.40
2018-11-14T09:23:13.188Z,7.30
2018-11-14T09:25:41.872Z,7.40
2018-11-14T09:28:10.526Z,7.50
2018-11-14T09:30:39.477Z,7.50
2018-11-14T09:33:08.345Z,7.50
2018-11-14T09:35:36.833Z,7.50
2018-11-14T09:38:05.668Z,7.60
2018-11-14T09:40:34.293Z,7.70
2018-11-14T09:43:03.193Z,7.70
2018-11-14T09:45:31.920Z,7.80
2018-11-14T09:48:00.608Z,7.90
2018-11-14T09:50:31.410Z,7.90
2018-11-14T09:53:01.715Z,7.90
2018-11-14T09:55:30.544Z,8.00
2018-11-14T09:57:59.237Z,8.00
2018-11-14T10:00:28.990Z,8.00
2018-11-14T10:03:01.466Z,8.00
2018-11-14T10:05:30.234Z,8.00
2018-11-14T10:07:59.341Z,8.00
2018-11-14T10:10:28.215Z,8.00
2018-11-14T10:12:57.205Z,8.10
2018-11-14T10:15:25.749Z,8.20
2018-11-14T10:17:54.345Z,8.20
2018-11-14T10:20:23.981Z,8.30
2018-11-14T10:22:52.930Z,8.30
2018-11-14T10:25:22.094Z,8.30
2018-11-14T10:27:50.904Z,8.40
2018-11-14T10:30:21.194Z,8.40
2018-11-14T10:32:50.780Z,8.50
2018-11-14T10:35:19.537Z,8.50
2018-11-14T10:37:48.144Z,8.50
2018-11-14T10:40:19.284Z,8.60
2018-11-14T10:42:48.001Z,8.60
2018-11-14T10:45:17.955Z,8.50
2018-11-14T10:47:46.788Z,8.50
2018-11-14T10:50:18.124Z,8.60
2018-11-14T10:52:46.712Z,8.50
2018-11-14T10:55:16.313Z,8.50
2018-11-14T10:57:45.081Z,8.50
2018-11-14T11:00:21.221Z,8.50
2018-11-14T11:02:55.319Z,8.50
2018-11-14T11:05:29.065Z,8.60
2018-11-14T11:08:03.029Z,8.70
2018-11-14T11:10:37.466Z,8.90
2018-11-14T11:13:10.141Z,8.90
2018-11-14T11:17:49.706Z,8.90
2018-11-14T11:20:18.528Z,9.00
2018-11-14T11:22:47.232Z,9.20
2018-11-14T11:25:16.001Z,9.20
2018-11-14T11:27:45.189Z,9.20
2018-11-14T11:30:14.119Z,9.10
2018-11-14T11:32:42.916Z,9.10
2018-11-14T11:35:11.733Z,8.90
2018-11-14T11:37:40.360Z,8.80
2018-11-14T11:40:09.725Z,8.70
2018-11-14T11:42:38.273Z,8.80
2018-11-14T11:45:07.749Z,8.70
2018-11-14T11:47:36.244Z,8.70
2018-11-14T11:50:05.873Z,8.70
2018-11-14T11:52:34.556Z,8.70
2018-11-14T11:55:03.313Z,8.60
2018-11-14T11:57:32.266Z,8.70
2018-11-14T12:00:01.328Z,8.50
2018-11-14T12:02:30.093Z,8.40
2018-11-14T12:04:58.880Z,8.40
2018-11-14T12:07:27.959Z,8.40
2018-11-14T12:09:56.589Z,8.40
2018-11-14T12:12:25.672Z,8.40
2018-11-14T12:14:54.252Z,8.40
2018-11-14T12:17:23.157Z,8.40
2018-11-14T12:19:52.149Z,8.30
2018-11-14T12:22:20.793Z,8.40
2018-11-14T12:24:49.680Z,8.50
2018-11-14T12:27:18.436Z,8.50
2018-11-14T12:29:47.125Z,8.40
2018-11-14T12:32:15.787Z,8.40
2018-11-14T12:34:44.896Z,8.30
2018-11-14T12:37:13.473Z,8.30
2018-11-14T12:39:42.276Z,8.30
2018-11-14T12:42:11.364Z,8.30
2018-11-14T12:44:40.140Z,8.30
2018-11-14T12:47:09.177Z,8.20
2018-11-14T12:49:46.421Z,8.20
2018-11-14T12:52:17.581Z,8.20
2018-11-14T12:54:46.456Z,8.30
2018-11-14T12:57:15.237Z,8.40
2018-11-14T12:59:43.856Z,8.30
2018-11-14T13:02:12.601Z,8.40
2018-11-14T13:04:41.525Z,8.40
2018-11-14T13:07:10.177Z,8.30
2018-11-14T13:09:38.873Z,8.20
2018-11-14T13:12:07.852Z,8.20
2018-11-14T13:14:36.572Z,8.20
2018-11-14T13:17:05.417Z,8.20
2018-11-14T13:19:34.017Z,8.10
2018-11-14T13:22:02.708Z,8.00
2018-11-14T13:24:32.068Z,8.10
2018-11-14T13:27:00.980Z,8.20
2018-11-14T13:29:29.900Z,8.10
2018-11-14T13:31:58.885Z,8.00
2018-11-14T13:34:27.592Z,8.00
2018-11-14T13:36:56.288Z,8.00
2018-11-14T13:39:24.962Z,8.00
2018-11-14T13:41:53.648Z,7.90
2018-11-14T13:44:22.344Z,7.90
2018-11-14T13:46:51.092Z,7.90
2018-11-14T13:49:20.236Z,7.90
2018-11-14T13:51:49.025Z,7.90
2018-11-14T13:54:17.724Z,7.90
2018-11-14T13:56:46.417Z,8.00
2018-11-14T13:59:15.085Z,8.00
2018-11-14T14:01:43.744Z,8.00
2018-11-14T14:04:12.566Z,8.10
2018-11-14T14:06:41.181Z,8.10
2018-11-14T14:09:11.737Z,8.10
2018-11-14T14:11:40.533Z,8.00
2018-11-14T14:14:15.993Z,8.00
2018-11-14T14:16:45.117Z,7.90
2018-11-14T14:19:14.385Z,7.90
2018-11-14T14:21:43.121Z,7.90
2018-11-14T14:24:11.912Z,7.80
2018-11-14T14:26:40.836Z,7.80
2018-11-14T14:29:09.821Z,8.10
2018-11-14T14:31:38.805Z,8.10
2018-11-14T14:34:07.433Z,8.30
2018-11-14T14:36:36.163Z,8.30
2018-11-14T14:39:08.331Z,8.10
2018-11-14T14:41:37.078Z,8.10
2018-11-14T14:44:05.853Z,8.00
2018-11-14T14:46:34.683Z,8.00
2018-11-14T14:49:03.461Z,8.00
2018-11-14T14:51:32.541Z,7.90
2018-11-14T14:54:01.513Z,7.90
2018-11-14T14:56:30.425Z,7.90
2018-11-14T14:58:59.035Z,7.90
2018-11-14T15:01:27.612Z,7.80
2018-11-14T15:03:56.288Z,7.80
2018-11-14T15:06:25.111Z,7.80
2018-11-14T15:08:53.644Z,7.80
2018-11-14T15:11:22.352Z,7.70
2018-11-14T15:13:51.037Z,7.80
2018-11-14T15:16:19.720Z,7.80
2018-11-14T15:18:48.607Z,7.80
2018-11-14T15:21:17.260Z,7.60
2018-11-14T15:23:46.138Z,7.70
2018-11-14T15:26:14.857Z,7.70
2018-11-14T15:28:43.498Z,7.70
2018-11-14T15:31:12.145Z,7.70
2018-11-14T15:33:41.136Z,7.70
2018-11-14T15:36:10.165Z,7.70
2018-11-14T15:38:39.097Z,7.70
2018-11-14T15:41:07.898Z,7.60
2018-11-14T15:43:36.780Z,7.60
2018-11-14T15:46:05.685Z,7.60
2018-11-14T15:48:34.780Z,7.60
2018-11-14T15:51:03.641Z,7.60
2018-11-14T15:53:32.161Z,7.60
2018-11-14T15:56:00.949Z,7.60
2018-11-14T15:58:29.537Z,7.50
2018-11-14T16:00:58.309Z,7.50
2018-11-14T16:03:27.141Z,7.50
2018-11-14T16:05:56.048Z,7.50
2018-11-14T16:08:24.645Z,7.50
2018-11-14T16:10:53.285Z,7.50
2018-11-14T16:13:22.032Z,7.50
2018-11-14T16:15:50.640Z,7.50
2018-11-14T16:18:19.645Z,7.40
2018-11-14T16:20:48.557Z,7.40
2018-11-14T16:23:17.320Z,7.40
2018-11-14T16:25:46.292Z,7.50
2018-11-14T16:28:15.234Z,7.50
2018-11-14T16:30:44.122Z,7.50
2018-11-14T16:33:12.765Z,7.50
2018-11-14T16:35:41.377Z,7.50
2018-11-14T16:38:10.200Z,7.50
2018-11-14T16:40:38.820Z,7.50
2018-11-14T16:43:08.353Z,7.50
2018-11-14T16:45:37.249Z,7.50
2018-11-14T16:48:06.029Z,7.50
2018-11-14T16:50:34.933Z,7.50
2018-11-14T16:53:03.856Z,7.50
2018-11-14T16:55:32.280Z,7.50
2018-11-14T16:58:00.727Z,7.50
2018-11-14T17:00:30.245Z,7.50
2018-11-14T17:02:58.740Z,7.50
2018-11-14T17:05:28.432Z,7.50
2018-11-14T17:07:57.057Z,7.50
2018-11-14T17:10:25.948Z,7.50
2018-11-14T17:12:55.939Z,7.40
2018-11-14T17:15:25.620Z,7.40
2018-11-14T17:17:54.245Z,7.40
2018-11-14T17:20:23.326Z,7.40
2018-11-14T17:22:52.915Z,7.40
2018-11-14T17:25:21.585Z,7.40
2018-11-14T17:27:50.396Z,7.40
2018-11-14T17:30:20.461Z,7.40
2018-11-14T17:32:49.272Z,7.40
2018-11-14T17:35:18.220Z,7.40
2018-11-14T17:37:47.097Z,7.40
2018-11-14T17:40:17.860Z,7.40
2018-11-14T17:42:47.138Z,7.40
2018-11-14T17:45:18.562Z,7.40
2018-11-14T17:47:47.916Z,7.40
2018-11-14T17:50:19.514Z,7.40
2018-11-14T17:52:49.471Z,7.40
2018-11-14T17:55:18.987Z,7.30
2018-11-14T17:57:47.780Z,7.30
2018-11-14T18:00:18.448Z,7.40
2018-11-14T18:02:47.415Z,7.40
2018-11-14T18:05:17.976Z,7.40
2018-11-14T18:07:47.665Z,7.30
2018-11-14T18:10:18.523Z,7.30
2018-11-14T18:12:48.016Z,7.30
2018-11-14T18:15:16.993Z,7.30
2018-11-14T18:17:45.876Z,7.40
2018-11-14T18:20:15.740Z,7.40
2018-11-14T18:22:45.029Z,7.40
2018-11-14T18:25:14.277Z,7.50
2018-11-14T18:27:43.081Z,7.40
2018-11-14T18:30:14.891Z,7.40
2018-11-14T18:32:43.740Z,7.50
2018-11-14T18:35:13.785Z,7.40
2018-11-14T18:37:43.237Z,7.40
2018-11-14T18:40:13.905Z,7.40
2018-11-14T18:42:42.784Z,7.40
2018-11-14T18:45:14.259Z,7.40
2018-11-14T18:47:43.557Z,7.40
2018-11-14T18:50:13.458Z,7.40
2018-11-14T18:52:42.501Z,7.40
2018-11-14T18:55:12.412Z,7.40
2018-11-14T18:57:41.565Z,7.40
2018-11-14T19:00:14.825Z,7.40
2018-11-14T19:02:44.095Z,7.40
2018-11-14T19:05:13.399Z,7.50
2018-11-14T19:07:42.157Z,7.40
2018-11-14T19:10:12.748Z,7.40
2018-11-14T19:12:41.957Z,7.40
2018-11-14T19:15:13.033Z,7.40
2018-11-14T19:17:41.620Z,7.30
2018-11-14T19:20:12.596Z,7.30
2018-11-14T19:22:41.629Z,7.30
2018-11-14T19:25:12.037Z,7.30
2018-11-14T19:27:41.023Z,7.30
2018-11-14T19:30:12.073Z,7.30
2018-11-14T19:32:40.574Z,7.30
2018-11-14T19:35:10.335Z,7.30
2018-11-14T19:37:39.988Z,7.40
2018-11-14T19:40:11.349Z,7.40
2018-11-14T19:42:40.184Z,7.40
2018-11-14T19:45:11.735Z,7.40
2018-11-14T19:47:40.764Z,7.40
2018-11-14T19:50:11.407Z,7.40
2018-11-14T19:52:43.130Z,7.50
2018-11-14T19:55:12.921Z,7.40
2018-11-14T19:57:42.547Z,7.40
2018-11-14T20:00:14.153Z,7.40
2018-11-14T20:02:43.122Z,7.40
2018-11-14T20:05:13.348Z,7.40
2018-11-14T20:07:42.285Z,7.30
2018-11-14T20:10:14.469Z,7.40
2018-11-14T20:12:43.423Z,7.30
2018-11-14T20:15:13.321Z,7.30
2018-11-14T20:17:43.257Z,7.30
2018-11-14T20:20:14.261Z,7.30
2018-11-14T20:22:43.372Z,7.30
2018-11-14T20:25:12.531Z,7.30
2018-11-14T20:27:41.524Z,7.30
2018-11-14T20:30:16.630Z,7.30
2018-11-14T20:32:45.236Z,7.30
2018-11-14T20:35:15.195Z,7.30
2018-11-14T20:37:43.885Z,7.40
2018-11-14T20:40:14.658Z,7.30
2018-11-14T20:42:43.790Z,7.20
2018-11-14T20:45:14.343Z,7.20
2018-11-14T20:47:43.154Z,7.20
2018-11-14T20:50:14.700Z,7.30
2018-11-14T20:52:44.058Z,7.30
2018-11-14T20:55:15.571Z,7.30
2018-11-14T20:57:44.609Z,7.20
2018-11-14T21:00:22.171Z,7.30
2018-11-14T21:02:51.167Z,7.20
2018-11-14T21:05:20.059Z,7.20
2018-11-14T21:07:48.992Z,7.10
2018-11-14T21:10:18.997Z,7.20
2018-11-14T21:12:48.221Z,7.20
2018-11-14T21:15:18.467Z,7.20
2018-11-14T21:17:47.920Z,7.20
2018-11-14T21:20:16.602Z,7.20
2018-11-14T21:22:45.583Z,7.20
2018-11-14T21:25:15.775Z,7.20
2018-11-14T21:27:45.241Z,7.20
2018-11-14T21:30:16.023Z,7.20
2018-11-14T21:32:44.996Z,7.20
2018-11-14T21:35:17.776Z,7.20
2018-11-14T21:37:47.974Z,7.10
2018-11-14T21:40:16.734Z,7.10
2018-11-14T21:42:52.135Z,7.10
2018-11-14T21:45:22.336Z,7.10
2018-11-14T21:47:56.638Z,7.20
2018-11-14T21:50:26.257Z,7.10
2018-11-14T21:52:54.826Z,7.10
2018-11-14T21:55:26.317Z,7.10
2018-11-14T21:57:55.017Z,7.10
2018-11-14T22:00:29.898Z,7.10
2018-11-14T22:02:58.552Z,7.10
2018-11-14T22:05:27.189Z,7.10
2018-11-14T22:07:55.897Z,7.10
2018-11-14T22:10:25.157Z,7.10
2018-11-14T22:12:54.189Z,7.00
2018-11-14T22:15:23.968Z,7.00
2018-11-14T22:17:52.684Z,7.10
2018-11-14T22:20:22.905Z,7.10
2018-11-14T22:22:51.693Z,7.10
2018-11-14T22:25:21.626Z,7.10
2018-11-14T22:27:50.491Z,7.00
2018-11-14T22:30:22.141Z,7.00
2018-11-14T22:32:50.737Z,7.00
2018-11-14T22:35:20.656Z,7.10
2018-11-14T22:37:49.363Z,7.10
2018-11-14T22:40:20.277Z,7.10
2018-11-14T22:42:48.865Z,7.00
2018-11-14T22:45:18.696Z,7.00
2018-11-14T22:47:47.716Z,7.00
2018-11-14T22:50:18.068Z,7.00
2018-11-14T22:52:47.201Z,7.00
2018-11-14T22:55:17.154Z,6.90
2018-11-14T22:57:46.728Z,6.90
2018-11-14T23:00:23.002Z,6.90
2018-11-14T23:02:52.866Z,7.00
2018-11-14T23:05:21.860Z,7.00
2018-11-14T23:07:51.608Z,6.90
2018-11-14T23:10:21.238Z,6.90
2018-11-14T23:12:50.326Z,6.90
2018-11-14T23:15:20.005Z,6.90
2018-11-14T23:17:48.810Z,6.90
2018-11-14T23:20:18.058Z,6.90
2018-11-14T23:22:47.416Z,6.90
2018-11-14T23:25:16.492Z,6.80
2018-11-14T23:27:48.373Z,6.80
2018-11-14T23:30:17.752Z,6.80
2018-11-14T23:32:47.760Z,6.80
2018-11-14T23:35:32.518Z,6.90
2018-11-14T23:38:03.194Z,6.90
2018-11-14T23:40:32.124Z,6.80
2018-11-14T23:43:01.261Z,6.80
2018-11-14T23:45:30.813Z,6.80
2018-11-14T23:47:59.593Z,6.80
2018-11-14T23:50:29.464Z,6.80
2018-11-14T23:52:59.048Z,6.80
2018-11-14T23:55:28.908Z,6.80
2018-11-14T23:57:58.009Z,6.80
